Time;durP1;ratioP1;P1;durP2;ratioP2;P2;SDS_P1;SDS_P2;PMS_P1;PMS_P2;Temp;Humidity;BMP_temperature;BMP_pressure;BME280_temperature;BME280_humidity;BME280_pressure;Samples;Min_cycle;Max_cycle;Signal;HPM_P1;HPM_P2
2023/09/17 00:02:21;;;;;;;31.10;23.65;;;;;;;;;;5014242;28;20575;-77
2023/09/17 00:04:47;;;;;;;33.47;24.90;;;;;;;;;;5014449;28;20036;-78
2023/09/17 00:07:13;;;;;;;34.20;24.42;;;;;;;;;;5014240;28;20072;-77
2023/09/17 00:09:39;;;;;;;34.78;25.35;;;;;;;;;;5014362;28;20352;-77
2023/09/17 00:12:06;;;;;;;31.73;23.42;;;;;;;;;;5013899;28;20030;-77
2023/09/17 00:14:32;;;;;;;29.67;23.45;;;;;;;;;;5014062;28;20724;-77
2023/09/17 00:16:58;;;;;;;31.70;22.33;;;;;;;;;;5013183;28;20072;-77
2023/09/17 00:19:26;;;;;;;29.20;22.15;;;;;;;;;;5014265;28;20033;-77
2023/09/17 00:21:52;;;;;;;30.25;21.80;;;;;;;;;;5014088;28;20029;-77
2023/09/17 00:24:18;;;;;;;30.83;20.83;;;;;;;;;;5013927;28;20033;-77
2023/09/17 00:26:44;;;;;;;28.23;21.55;;;;;;;;;;4996367;28;20025;-77
2023/09/17 00:29:10;;;;;;;28.50;21.55;;;;;;;;;;5014000;28;20058;-77
2023/09/17 00:31:37;;;;;;;28.85;21.77;;;;;;;;;;5013928;28;20040;-77
2023/09/17 00:34:03;;;;;;;30.92;22.80;;;;;;;;;;4996033;28;20057;-77
2023/09/17 00:36:30;;;;;;;30.48;22.92;;;;;;;;;;5013832;28;20025;-78
2023/09/17 00:38:56;;;;;;;33.10;22.75;;;;;;;;;;4996047;28;20026;-77
2023/09/17 00:41:22;;;;;;;25.33;20.58;;;;;;;;;;5013703;28;20030;-78
2023/09/17 00:43:48;;;;;;;28.35;22.70;;;;;;;;;;4996574;28;20080;-78
2023/09/17 00:46:14;;;;;;;29.63;21.10;;;;;;;;;;5013273;28;20049;-78
2023/09/17 00:48:41;;;;;;;28.73;22.65;;;;;;;;;;4994500;28;20029;-77
2023/09/17 00:51:07;;;;;;;27.77;21.65;;;;;;;;;;5013464;28;20030;-78
2023/09/17 00:53:33;;;;;;;31.48;22.35;;;;;;;;;;5013126;28;20116;-78
2023/09/17 00:55:59;;;;;;;28.58;20.98;;;;;;;;;;5013532;28;20101;-77
2023/09/17 00:58:28;;;;;;;29.08;21.17;;;;;;;;;;5013660;28;20065;-78
2023/09/17 01:00:54;;;;;;;26.10;21.85;;;;;;;;;;5013442;28;20429;-78
2023/09/17 01:03:21;;;;;;;29.25;21.95;;;;;;;;;;5013489;28;20053;-77
2023/09/17 01:05:47;;;;;;;30.02;20.95;;;;;;;;;;5013467;28;20022;-78
2023/09/17 01:08:13;;;;;;;27.90;22.38;;;;;;;;;;4994197;28;20569;-77
2023/09/17 01:10:40;;;;;;;23.85;18.90;;;;;;;;;;5011799;28;20041;-77
2023/09/17 01:13:06;;;;;;;26.42;21.08;;;;;;;;;;5013331;28;20049;-77
2023/09/17 01:15:33;;;;;;;29.48;21.05;;;;;;;;;;5013359;28;20172;-77
2023/09/17 01:18:00;;;;;;;28.10;20.73;;;;;;;;;;4992261;28;20062;-78
2023/09/17 01:20:29;;;;;;;25.27;19.33;;;;;;;;;;4993929;28;20023;-77
2023/09/17 01:22:59;;;;;;;25.73;19.15;;;;;;;;;;4994899;28;20113;-77
2023/09/17 01:25:48;;;;;;;25.52;18.98;;;;;;;;;;4998114;28;20022;-77
2023/09/17 01:28:14;;;;;;;26.90;19.65;;;;;;;;;;4997469;28;20058;-77
2023/09/17 01:30:41;;;;;;;27.42;19.75;;;;;;;;;;4997561;28;20125;-77
2023/09/17 01:33:15;;;;;;;27.60;20.75;;;;;;;;;;4998053;28;20018;-77
2023/09/17 01:36:01;;;;;;;27.23;21.58;;;;;;;;;;4997567;28;20030;-77
2023/09/17 01:38:32;;;;;;;27.65;19.52;;;;;;;;;;4997454;28;20101;-77
2023/09/17 01:40:59;;;;;;;27.55;21.58;;;;;;;;;;4997455;28;20095;-78
2023/09/17 01:43:25;;;;;;;26.83;21.42;;;;;;;;;;4997470;28;20030;-77
2023/09/17 01:45:52;;;;;;;27.08;21.20;;;;;;;;;;4997352;28;20034;-77
2023/09/17 01:48:18;;;;;;;27.67;22.58;;;;;;;;;;4997186;28;20018;-77
2023/09/17 01:50:45;;;;;;;32.03;23.73;;;;;;;;;;4997231;28;20030;-77
2023/09/17 01:53:12;;;;;;;30.08;24.02;;;;;;;;;;4997159;28;20027;-77
2023/09/17 01:55:38;;;;;;;31.00;24.33;;;;;;;;;;4996083;28;20030;-77
2023/09/17 01:58:04;;;;;;;33.22;23.90;;;;;;;;;;4997274;28;20080;-77
2023/09/17 02:00:32;;;;;;;31.88;25.42;;;;;;;;;;4997665;28;20026;-77
2023/09/17 02:02:58;;;;;;;32.63;25.17;;;;;;;;;;4997159;28;20030;-77
2023/09/17 02:05:25;;;;;;;30.23;23.75;;;;;;;;;;4996971;28;20037;-77
2023/09/17 02:07:52;;;;;;;27.58;23.60;;;;;;;;;;4997306;28;20058;-77
2023/09/17 02:10:18;;;;;;;28.15;22.40;;;;;;;;;;4997149;28;20022;-78
2023/09/17 02:12:44;;;;;;;29.55;24.55;;;;;;;;;;4997074;28;20034;-77
2023/09/17 02:15:18;;;;;;;29.35;22.90;;;;;;;;;;4996964;28;20401;-78
2023/09/17 02:17:45;;;;;;;29.10;22.08;;;;;;;;;;5006368;28;20042;-78
2023/09/17 02:20:11;;;;;;;31.35;23.30;;;;;;;;;;5016595;28;20357;-77
2023/09/17 02:22:40;;;;;;;32.45;22.40;;;;;;;;;;5016667;28;20088;-78
2023/09/17 02:25:07;;;;;;;29.48;23.27;;;;;;;;;;5016144;28;20084;-78
2023/09/17 02:27:33;;;;;;;29.88;23.48;;;;;;;;;;5016138;28;20026;-77
2023/09/17 02:30:00;;;;;;;31.48;24.50;;;;;;;;;;5016057;28;20108;-77
2023/09/17 02:32:26;;;;;;;28.08;22.58;;;;;;;;;;5015921;28;20088;-77
2023/09/17 02:34:52;;;;;;;27.95;21.92;;;;;;;;;;5015718;28;20018;-77
2023/09/17 02:37:18;;;;;;;30.88;23.48;;;;;;;;;;5016067;28;20024;-77
2023/09/17 02:39:44;;;;;;;29.92;22.67;;;;;;;;;;5016331;28;20021;-78
2023/09/17 02:42:10;;;;;;;27.98;20.98;;;;;;;;;;5015859;28;20463;-77
2023/09/17 02:44:36;;;;;;;25.75;20.92;;;;;;;;;;5015675;28;20030;-77
2023/09/17 02:47:02;;;;;;;26.88;21.65;;;;;;;;;;5015582;28;20101;-78
2023/09/17 02:49:29;;;;;;;32.88;23.05;;;;;;;;;;5015724;28;20049;-77
2023/09/17 02:51:55;;;;;;;27.02;23.02;;;;;;;;;;5015456;28;20041;-77
2023/09/17 02:54:21;;;;;;;28.00;22.70;;;;;;;;;;4997970;28;20022;-78
2023/09/17 02:56:47;;;;;;;29.17;23.52;;;;;;;;;;5015507;28;20030;-77
2023/09/17 02:59:15;;;;;;;30.05;24.20;;;;;;;;;;5015340;28;20044;-77
2023/09/17 03:01:41;;;;;;;29.58;23.98;;;;;;;;;;5015391;28;20014;-77
2023/09/17 03:04:07;;;;;;;31.73;25.13;;;;;;;;;;5015872;28;20030;-77
2023/09/17 03:06:34;;;;;;;29.25;23.33;;;;;;;;;;5015482;28;20030;-77
2023/09/17 03:09:00;;;;;;;29.63;24.73;;;;;;;;;;5016690;28;20026;-77
2023/09/17 03:11:29;;;;;;;30.67;23.48;;;;;;;;;;5015639;28;20018;-77
2023/09/17 03:13:56;;;;;;;32.47;24.98;;;;;;;;;;5015806;28;20496;-78
2023/09/17 03:16:22;;;;;;;31.98;24.60;;;;;;;;;;4998557;28;20030;-77
2023/09/17 03:18:48;;;;;;;31.60;25.10;;;;;;;;;;5016246;28;20049;-77
2023/09/17 03:21:15;;;;;;;36.30;26.75;;;;;;;;;;5015705;28;20100;-77
2023/09/17 03:23:41;;;;;;;35.15;25.67;;;;;;;;;;5015015;28;20494;-77
2023/09/17 03:26:09;;;;;;;32.55;24.42;;;;;;;;;;4997597;28;20061;-77
2023/09/17 03:28:35;;;;;;;33.10;25.83;;;;;;;;;;5015003;28;20550;-77
2023/09/17 03:31:01;;;;;;;26.98;21.85;;;;;;;;;;5015337;28;20145;-77
2023/09/17 03:33:29;;;;;;;31.42;24.00;;;;;;;;;;5015137;28;20033;-77
2023/09/17 03:35:55;;;;;;;27.65;22.23;;;;;;;;;;5015090;28;20022;-77
2023/09/17 03:38:21;;;;;;;29.75;23.80;;;;;;;;;;5014784;28;20018;-77
2023/09/17 03:40:49;;;;;;;33.05;25.15;;;;;;;;;;5014991;28;20052;-77
2023/09/17 03:43:15;;;;;;;30.67;23.67;;;;;;;;;;5015049;28;20400;-77
2023/09/17 03:45:41;;;;;;;30.30;25.05;;;;;;;;;;5013889;28;20080;-77
2023/09/17 03:48:07;;;;;;;30.70;23.27;;;;;;;;;;4997043;28;20030;-78
2023/09/17 03:50:35;;;;;;;33.55;25.08;;;;;;;;;;4997150;28;20033;-77
2023/09/17 03:53:05;;;;;;;33.25;26.45;;;;;;;;;;5014980;28;20049;-77
2023/09/17 03:55:33;;;;;;;32.00;25.98;;;;;;;;;;5014721;28;20060;-78
2023/09/17 03:57:59;;;;;;;32.22;25.08;;;;;;;;;;4996824;28;20384;-78
2023/09/17 04:00:25;;;;;;;34.17;25.23;;;;;;;;;;5014827;28;20030;-77
2023/09/17 04:02:52;;;;;;;34.28;24.65;;;;;;;;;;5014236;28;20088;-78
2023/09/17 04:05:21;;;;;;;30.30;23.67;;;;;;;;;;5014643;28;20068;-78
2023/09/17 04:07:47;;;;;;;30.40;24.17;;;;;;;;;;4997098;28;20117;-77
2023/09/17 04:10:14;;;;;;;33.83;25.83;;;;;;;;;;5014416;28;20034;-77
2023/09/17 04:12:40;;;;;;;34.28;25.60;;;;;;;;;;5014360;28;20030;-77
2023/09/17 04:15:19;;;;;;;35.97;27.02;;;;;;;;;;4996782;28;20032;-78
2023/09/17 04:17:46;;;;;;;32.13;26.70;;;;;;;;;;5013598;28;20046;-78
2023/09/17 04:20:13;;;;;;;32.13;25.15;;;;;;;;;;5014655;28;20029;-78
2023/09/17 04:22:53;;;;;;;31.52;25.17;;;;;;;;;;5014760;28;20353;-77
2023/09/17 04:25:20;;;;;;;32.50;26.13;;;;;;;;;;5014517;28;20022;-78
2023/09/17 04:27:47;;;;;;;32.53;25.50;;;;;;;;;;5014287;28;20021;-77
2023/09/17 04:30:14;;;;;;;28.77;21.95;;;;;;;;;;5014020;28;20076;-78
2023/09/17 04:32:41;;;;;;;34.42;25.83;;;;;;;;;;4996077;28;20034;-78
2023/09/17 04:35:07;;;;;;;30.20;24.27;;;;;;;;;;5014338;28;20105;-78
2023/09/17 04:37:34;;;;;;;28.77;23.15;;;;;;;;;;4996445;28;20026;-78
2023/09/17 04:40:00;;;;;;;26.42;21.83;;;;;;;;;;5014395;28;20105;-78
2023/09/17 04:42:27;;;;;;;30.00;24.13;;;;;;;;;;5013861;28;20034;-78
2023/09/17 04:44:53;;;;;;;32.63;25.38;;;;;;;;;;5014082;28;20322;-77
2023/09/17 04:47:19;;;;;;;31.80;23.67;;;;;;;;;;5014376;28;20100;-78
2023/09/17 04:49:45;;;;;;;34.05;24.02;;;;;;;;;;5013983;28;20105;-77
2023/09/17 04:52:11;;;;;;;34.03;25.95;;;;;;;;;;5013672;28;20596;-77
2023/09/17 04:54:38;;;;;;;31.15;23.27;;;;;;;;;;4996514;28;20030;-77
2023/09/17 04:57:05;;;;;;;30.55;22.95;;;;;;;;;;5014861;28;20026;-77
2023/09/17 04:59:31;;;;;;;31.80;24.98;;;;;;;;;;5018048;28;20423;-77
2023/09/17 05:01:57;;;;;;;30.30;23.27;;;;;;;;;;5017832;28;20034;-77
2023/09/17 05:04:26;;;;;;;33.92;26.58;;;;;;;;;;5017606;28;20147;-78
2023/09/17 05:06:52;;;;;;;30.00;21.58;;;;;;;;;;5017750;28;20021;-77
2023/09/17 05:09:18;;;;;;;28.75;23.27;;;;;;;;;;5017498;28;20101;-77
2023/09/17 05:11:44;;;;;;;28.35;22.67;;;;;;;;;;5017469;28;20022;-78
2023/09/17 05:14:10;;;;;;;27.67;23.77;;;;;;;;;;5017634;28;20025;-78
2023/09/17 05:16:38;;;;;;;30.02;22.98;;;;;;;;;;5017588;28;20428;-77
2023/09/17 05:19:04;;;;;;;27.05;22.02;;;;;;;;;;4996357;28;20050;-77
2023/09/17 05:21:30;;;;;;;29.00;20.20;;;;;;;;;;4997988;28;20076;-78
2023/09/17 05:23:56;;;;;;;31.15;23.60;;;;;;;;;;4997772;28;20106;-78
2023/09/17 05:26:23;;;;;;;29.92;23.92;;;;;;;;;;4998086;28;20053;-78
2023/09/17 05:28:49;;;;;;;32.30;23.27;;;;;;;;;;4996435;28;20125;-78
2023/09/17 05:31:15;;;;;;;29.20;22.23;;;;;;;;;;4997611;28;20081;-77
2023/09/17 05:33:41;;;;;;;28.02;21.25;;;;;;;;;;4997753;28;20121;-77
2023/09/17 05:36:07;;;;;;;29.63;23.30;;;;;;;;;;4997447;28;20073;-78
2023/09/17 05:38:33;;;;;;;28.85;22.48;;;;;;;;;;4997295;28;20027;-78
2023/09/17 05:40:59;;;;;;;30.00;22.98;;;;;;;;;;4992339;28;20133;-77
2023/09/17 05:43:25;;;;;;;26.38;21.67;;;;;;;;;;4997510;28;20045;-77
2023/09/17 05:45:56;;;;;;;29.13;21.65;;;;;;;;;;4997311;28;20033;-77
2023/09/17 05:48:25;;;;;;;28.58;23.15;;;;;;;;;;4996668;28;20484;-78
2023/09/17 05:50:54;;;;;;;27.48;20.30;;;;;;;;;;4997052;28;20038;-79
2023/09/17 05:53:20;;;;;;;27.63;23.20;;;;;;;;;;4996758;28;20034;-78
2023/09/17 05:55:46;;;;;;;28.55;21.42;;;;;;;;;;4996490;28;20038;-78
2023/09/17 05:58:12;;;;;;;27.83;21.48;;;;;;;;;;4997470;28;20052;-78
2023/09/17 06:00:39;;;;;;;29.23;22.30;;;;;;;;;;4996854;28;20385;-78
2023/09/17 06:03:05;;;;;;;26.30;20.38;;;;;;;;;;4996934;28;20034;-78
2023/09/17 06:05:31;;;;;;;28.23;21.83;;;;;;;;;;4998186;28;20022;-77
2023/09/17 06:07:57;;;;;;;30.35;23.23;;;;;;;;;;4997105;28;20033;-77
2023/09/17 06:10:23;;;;;;;28.75;23.50;;;;;;;;;;4996452;28;20034;-78
2023/09/17 06:12:49;;;;;;;30.83;23.30;;;;;;;;;;4996404;28;20065;-77
2023/09/17 06:15:15;;;;;;;31.02;21.80;;;;;;;;;;4997620;28;20026;-78
2023/09/17 06:17:41;;;;;;;29.92;22.20;;;;;;;;;;5004452;28;20763;-78
2023/09/17 06:20:11;;;;;;;26.30;22.25;;;;;;;;;;5016953;28;20079;-78
2023/09/17 06:22:37;;;;;;;26.63;21.20;;;;;;;;;;5000389;28;20065;-78
2023/09/17 06:25:03;;;;;;;27.00;21.20;;;;;;;;;;5017054;28;20465;-78
2023/09/17 06:27:30;;;;;;;29.25;21.38;;;;;;;;;;5017573;28;20476;-78
2023/09/17 06:30:06;;;;;;;28.42;23.42;;;;;;;;;;5017643;28;20129;-78
2023/09/17 06:32:33;;;;;;;30.50;24.00;;;;;;;;;;5016977;28;20033;-78
2023/09/17 06:34:59;;;;;;;26.25;21.05;;;;;;;;;;5016464;28;20108;-78
2023/09/17 06:37:47;;;;;;;31.08;23.45;;;;;;;;;;4999118;28;20018;-78
2023/09/17 06:40:14;;;;;;;28.10;22.50;;;;;;;;;;4998276;28;20027;-77
2023/09/17 06:42:42;;;;;;;26.48;22.35;;;;;;;;;;5010636;28;20029;-78
2023/09/17 06:45:13;;;;;;;29.80;23.35;;;;;;;;;;5017326;28;20476;-79
2023/09/17 06:47:39;;;;;;;29.85;23.85;;;;;;;;;;4996615;28;20502;-78
2023/09/17 06:50:13;;;;;;;29.00;23.35;;;;;;;;;;4996979;28;20034;-78
2023/09/17 06:52:39;;;;;;;26.50;20.58;;;;;;;;;;5011502;28;20044;-78
2023/09/17 06:55:05;;;;;;;28.33;22.42;;;;;;;;;;5015979;28;20026;-78
2023/09/17 06:57:32;;;;;;;27.77;23.02;;;;;;;;;;5009564;28;20019;-78
2023/09/17 06:59:58;;;;;;;27.70;22.95;;;;;;;;;;4996197;28;20034;-78
2023/09/17 07:02:24;;;;;;;26.60;19.95;;;;;;;;;;5015421;28;20108;-77
2023/09/17 07:04:50;;;;;;;24.25;19.65;;;;;;;;;;5015334;28;20026;-77
2023/09/17 07:07:16;;;;;;;26.55;20.65;;;;;;;;;;4997625;28;20075;-78
2023/09/17 07:09:54;;;;;;;29.92;20.80;;;;;;;;;;5004685;28;20023;-78
2023/09/17 07:12:25;;;;;;;24.85;18.90;;;;;;;;;;4995831;28;20037;-78
2023/09/17 07:14:51;;;;;;;24.65;17.65;;;;;;;;;;4981064;28;20033;-78
2023/09/17 07:17:17;;;;;;;27.90;21.92;;;;;;;;;;5014603;28;20062;-78
2023/09/17 07:19:43;;;;;;;27.55;21.30;;;;;;;;;;5015901;28;20021;-78
2023/09/17 07:22:14;;;;;;;30.58;22.40;;;;;;;;;;5015768;28;20443;-78
2023/09/17 07:24:41;;;;;;;30.77;23.00;;;;;;;;;;5015518;28;20022;-78
2023/09/17 07:27:07;;;;;;;29.85;21.88;;;;;;;;;;5008068;28;20097;-78
2023/09/17 07:29:33;;;;;;;27.73;22.35;;;;;;;;;;4995786;28;20057;-78
2023/09/17 07:31:59;;;;;;;27.17;21.75;;;;;;;;;;4995770;28;20034;-77
2023/09/17 07:34:26;;;;;;;27.45;22.50;;;;;;;;;;4995378;28;20496;-78
2023/09/17 07:36:53;;;;;;;29.00;22.92;;;;;;;;;;4994230;28;20458;-78
2023/09/17 07:39:19;;;;;;;31.85;23.60;;;;;;;;;;5016102;28;20025;-78
2023/09/17 07:41:45;;;;;;;30.85;24.50;;;;;;;;;;5004868;28;20026;-78
2023/09/17 07:44:12;;;;;;;27.65;22.92;;;;;;;;;;4998115;28;20021;-78
2023/09/17 07:46:38;;;;;;;27.80;21.05;;;;;;;;;;4998031;28;20080;-78
2023/09/17 07:49:04;;;;;;;26.65;21.75;;;;;;;;;;4996886;28;20033;-78
2023/09/17 07:51:30;;;;;;;31.45;22.13;;;;;;;;;;5015262;28;20036;-78
2023/09/17 07:53:57;;;;;;;27.08;21.85;;;;;;;;;;5015648;28;20109;-78
2023/09/17 07:56:23;;;;;;;28.60;22.25;;;;;;;;;;4997443;28;20480;-78
2023/09/17 07:58:49;;;;;;;28.35;21.02;;;;;;;;;;5014873;28;20034;-77
2023/09/17 08:01:15;;;;;;;27.75;21.10;;;;;;;;;;5014717;28;20022;-77
2023/09/17 08:03:41;;;;;;;27.58;19.58;;;;;;;;;;5015911;28;20022;-78
2023/09/17 08:06:07;;;;;;;27.73;22.13;;;;;;;;;;5015007;28;20132;-78
2023/09/17 08:08:33;;;;;;;25.90;21.70;;;;;;;;;;5014602;28;20022;-78
2023/09/17 08:10:59;;;;;;;28.38;22.17;;;;;;;;;;4997605;28;20461;-78
2023/09/17 08:13:25;;;;;;;27.13;21.15;;;;;;;;;;5014650;28;20045;-78
2023/09/17 08:15:51;;;;;;;25.75;21.17;;;;;;;;;;5014938;28;20080;-78
2023/09/17 08:18:17;;;;;;;26.58;21.58;;;;;;;;;;5013801;28;20052;-78
2023/09/17 08:20:44;;;;;;;27.25;21.40;;;;;;;;;;5015621;28;20018;-78
2023/09/17 08:23:10;;;;;;;27.15;19.83;;;;;;;;;;5015410;28;20048;-78
2023/09/17 08:25:36;;;;;;;28.05;21.63;;;;;;;;;;5014887;28;20033;-78
2023/09/17 08:28:03;;;;;;;27.08;20.58;;;;;;;;;;5014947;28;20022;-78
2023/09/17 08:30:29;;;;;;;28.20;21.50;;;;;;;;;;5003467;28;20523;-78
2023/09/17 08:32:57;;;;;;;25.30;19.35;;;;;;;;;;4994105;28;20530;-78
2023/09/17 08:35:24;;;;;;;29.30;20.90;;;;;;;;;;4977105;28;20022;-78
2023/09/17 08:37:55;;;;;;;30.05;21.00;;;;;;;;;;4977679;28;20030;-78
2023/09/17 08:40:24;;;;;;;29.38;21.00;;;;;;;;;;4995640;28;20022;-78
2023/09/17 08:42:50;;;;;;;27.10;20.33;;;;;;;;;;4996098;28;20384;-77
2023/09/17 08:45:17;;;;;;;29.20;21.30;;;;;;;;;;5013634;28;20029;-77
2023/09/17 08:47:43;;;;;;;29.42;22.25;;;;;;;;;;5013235;28;20026;-77
2023/09/17 08:50:09;;;;;;;33.22;23.80;;;;;;;;;;5013258;28;20026;-77
2023/09/17 08:52:38;;;;;;;32.80;24.02;;;;;;;;;;5013238;28;20030;-77
2023/09/17 08:55:08;;;;;;;33.55;25.08;;;;;;;;;;5013608;28;20059;-77
2023/09/17 08:57:42;;;;;;;30.92;24.08;;;;;;;;;;5013416;28;20014;-77
2023/09/17 09:00:10;;;;;;;30.38;22.90;;;;;;;;;;4998226;28;20060;-77
2023/09/17 09:02:43;;;;;;;33.03;24.77;;;;;;;;;;4993714;28;20166;-77
2023/09/17 09:05:11;;;;;;;30.65;23.25;;;;;;;;;;4993969;28;20049;-77
2023/09/17 09:07:37;;;;;;;31.17;23.35;;;;;;;;;;4976132;28;20038;-77
2023/09/17 09:10:03;;;;;;;33.85;24.30;;;;;;;;;;4993895;28;20023;-78
2023/09/17 09:12:29;;;;;;;33.67;24.38;;;;;;;;;;4993814;28;20037;-77
2023/09/17 09:14:57;;;;;;;32.22;23.55;;;;;;;;;;4993737;28;20026;-77
2023/09/17 09:17:23;;;;;;;37.25;26.60;;;;;;;;;;4991892;28;20050;-78
2023/09/17 09:19:50;;;;;;;35.72;25.63;;;;;;;;;;5013947;28;20065;-78
2023/09/17 09:22:17;;;;;;;31.13;23.77;;;;;;;;;;4996727;28;20027;-77
2023/09/17 09:24:46;;;;;;;31.80;24.08;;;;;;;;;;5013434;28;20378;-77
2023/09/17 09:27:13;;;;;;;33.33;25.10;;;;;;;;;;5014243;28;20573;-77
2023/09/17 09:29:42;;;;;;;31.67;22.20;;;;;;;;;;5014725;28;20022;-77
2023/09/17 09:32:09;;;;;;;32.28;23.80;;;;;;;;;;5001095;28;20440;-77
2023/09/17 09:34:36;;;;;;;35.00;25.70;;;;;;;;;;4995730;28;20026;-77
2023/09/17 09:37:04;;;;;;;33.72;23.85;;;;;;;;;;5013762;28;20029;-78
2023/09/17 09:39:30;;;;;;;28.67;20.80;;;;;;;;;;5005905;28;20058;-78
2023/09/17 09:41:56;;;;;;;32.80;24.77;;;;;;;;;;5011313;28;20061;-78
2023/09/17 09:44:25;;;;;;;35.78;24.38;;;;;;;;;;4998658;28;20030;-78
2023/09/17 09:46:56;;;;;;;34.03;25.50;;;;;;;;;;5018608;28;20088;-77
2023/09/17 09:49:23;;;;;;;35.08;25.77;;;;;;;;;;5017853;28;20428;-78
2023/09/17 09:51:49;;;;;;;30.30;21.65;;;;;;;;;;5018559;28;20106;-78
2023/09/17 09:54:15;;;;;;;32.63;25.33;;;;;;;;;;5017645;28;20089;-77
2023/09/17 09:56:41;;;;;;;32.42;22.67;;;;;;;;;;5017168;28;20034;-78
2023/09/17 09:59:07;;;;;;;33.92;23.50;;;;;;;;;;5018099;28;20072;-78
2023/09/17 10:01:37;;;;;;;27.08;21.02;;;;;;;;;;5018024;28;20484;-78
2023/09/17 10:04:05;;;;;;;25.40;18.35;;;;;;;;;;5000727;28;20117;-77
2023/09/17 10:06:31;;;;;;;29.67;21.60;;;;;;;;;;5018906;28;20014;-78
2023/09/17 10:08:58;;;;;;;26.75;19.08;;;;;;;;;;5018969;28;20097;-78
2023/09/17 10:11:24;;;;;;;23.40;17.33;;;;;;;;;;5018981;28;20053;-78
2023/09/17 10:13:54;;;;;;;20.83;15.35;;;;;;;;;;5000882;28;20052;-77
2023/09/17 10:16:20;;;;;;;18.33;15.45;;;;;;;;;;5018242;28;20105;-78
2023/09/17 10:18:46;;;;;;;19.58;15.93;;;;;;;;;;5017465;28;20046;-78
2023/09/17 10:21:13;;;;;;;18.98;14.20;;;;;;;;;;5018836;28;20026;-78
2023/09/17 10:23:40;;;;;;;21.02;16.42;;;;;;;;;;5018785;28;20040;-78
2023/09/17 10:26:07;;;;;;;20.67;16.25;;;;;;;;;;5019065;28;20077;-78
2023/09/17 10:28:34;;;;;;;20.63;15.77;;;;;;;;;;5018462;28;20049;-78
2023/09/17 10:31:01;;;;;;;20.30;16.00;;;;;;;;;;5018858;28;20078;-78
2023/09/17 10:33:28;;;;;;;21.00;17.25;;;;;;;;;;5019045;28;20038;-78
2023/09/17 10:35:57;;;;;;;22.25;17.38;;;;;;;;;;5019481;28;20664;-78
2023/09/17 10:38:26;;;;;;;20.53;17.47;;;;;;;;;;5021179;28;20026;-78
2023/09/17 10:40:52;;;;;;;20.30;16.75;;;;;;;;;;5021954;28;20431;-79
2023/09/17 10:43:19;;;;;;;20.45;15.75;;;;;;;;;;5018923;28;20128;-79
2023/09/17 10:45:55;;;;;;;18.60;14.38;;;;;;;;;;5018723;28;20026;-79
2023/09/17 10:48:22;;;;;;;18.77;15.40;;;;;;;;;;5018525;28;20026;-78
2023/09/17 10:50:49;;;;;;;19.63;15.27;;;;;;;;;;5019170;28;20037;-78
2023/09/17 10:53:15;;;;;;;19.23;15.65;;;;;;;;;;5018090;28;20030;-78
2023/09/17 10:55:44;;;;;;;17.67;15.05;;;;;;;;;;5000300;28;20014;-78
2023/09/17 10:58:15;;;;;;;20.38;15.82;;;;;;;;;;5018097;28;20032;-78
2023/09/17 11:00:42;;;;;;;20.50;15.98;;;;;;;;;;5017784;28;20029;-79
2023/09/17 11:03:09;;;;;;;21.92;16.02;;;;;;;;;;5017429;28;20099;-78
2023/09/17 11:05:35;;;;;;;23.48;17.65;;;;;;;;;;4995588;28;20037;-78
2023/09/17 11:08:03;;;;;;;19.98;15.15;;;;;;;;;;5018436;28;20108;-78
2023/09/17 11:10:29;;;;;;;20.85;17.27;;;;;;;;;;5018743;28;20037;-78
2023/09/17 11:12:55;;;;;;;17.33;15.35;;;;;;;;;;5018686;28;20030;-78
2023/09/17 11:15:21;;;;;;;18.48;14.55;;;;;;;;;;5018008;28;20042;-79
2023/09/17 11:17:47;;;;;;;18.65;15.20;;;;;;;;;;4999696;28;20065;-78
2023/09/17 11:20:17;;;;;;;17.35;14.93;;;;;;;;;;4999163;28;20461;-78
2023/09/17 11:22:44;;;;;;;;;;;;;;;;;;4999372;28;20030;-78
2023/09/17 11:25:11;;;;;;;18.83;14.63;;;;;;;;;;5005033;28;19956;-78
2023/09/17 11:27:54;;;;;;;19.98;15.75;;;;;;;;;;5018608;28;20492;-78
2023/09/17 11:30:23;;;;;;;18.08;15.52;;;;;;;;;;5018017;28;20034;-78
2023/09/17 11:32:55;;;;;;;22.52;15.13;;;;;;;;;;5017868;28;20651;-78
2023/09/17 11:35:22;;;;;;;17.20;13.65;;;;;;;;;;5017688;28;20085;-78
2023/09/17 11:37:49;;;;;;;17.20;13.65;;;;;;;;;;4999941;28;20025;-79
2023/09/17 11:40:16;;;;;;;16.50;13.27;;;;;;;;;;5019090;28;20092;-78
2023/09/17 11:42:42;;;;;;;16.55;13.10;;;;;;;;;;5017917;28;20384;-78
2023/09/17 11:45:08;;;;;;;15.40;12.75;;;;;;;;;;5016746;28;20384;-78
2023/09/17 11:47:37;;;;;;;16.83;12.77;;;;;;;;;;4996784;28;20384;-78
2023/09/17 11:50:05;;;;;;;13.77;10.50;;;;;;;;;;4979204;28;20042;-78
2023/09/17 11:52:33;;;;;;;13.63;11.68;;;;;;;;;;5016383;28;20034;-78
2023/09/17 11:55:06;;;;;;;14.95;11.95;;;;;;;;;;5017222;28;20061;-78
2023/09/17 11:57:43;;;;;;;13.23;11.50;;;;;;;;;;5008146;28;20440;-78
2023/09/17 12:00:16;;;;;;;14.48;12.18;;;;;;;;;;5004385;28;20515;-78
2023/09/17 12:02:43;;;;;;;10.85;9.60;;;;;;;;;;4998383;28;20093;-78
2023/09/17 12:05:10;;;;;;;12.20;10.98;;;;;;;;;;5016261;28;20024;-78
2023/09/17 12:07:46;;;;;;;13.23;11.93;;;;;;;;;;5015688;28;20024;-78
2023/09/17 12:10:12;;;;;;;13.50;11.77;;;;;;;;;;5003184;28;20557;-78
2023/09/17 12:12:38;;;;;;;13.80;12.27;;;;;;;;;;4995852;28;20085;-78
2023/09/17 12:15:05;;;;;;;12.55;10.80;;;;;;;;;;4996194;28;20026;-78
2023/09/17 12:17:33;;;;;;;12.05;10.65;;;;;;;;;;4979695;28;20069;-78
2023/09/17 12:20:12;;;;;;;12.85;10.65;;;;;;;;;;5015156;28;20025;-78
2023/09/17 12:22:38;;;;;;;11.32;10.23;;;;;;;;;;5016076;28;20051;-78
2023/09/17 12:25:14;;;;;;;11.85;10.25;;;;;;;;;;5015777;28;20022;-78
2023/09/17 12:27:46;;;;;;;11.40;10.25;;;;;;;;;;5015150;28;20026;-78
2023/09/17 12:30:13;;;;;;;12.05;9.60;;;;;;;;;;5015133;28;20077;-78
2023/09/17 12:32:39;;;;;;;12.23;10.45;;;;;;;;;;4997110;28;20164;-78
2023/09/17 12:35:06;;;;;;;10.32;8.60;;;;;;;;;;5015189;28;20033;-77
2023/09/17 12:37:32;;;;;;;11.65;10.40;;;;;;;;;;5014708;28;20053;-78
2023/09/17 12:39:58;;;;;;;10.25;7.97;;;;;;;;;;5015323;28;20449;-77
2023/09/17 12:42:24;;;;;;;8.75;6.80;;;;;;;;;;5014378;28;20022;-78
2023/09/17 12:44:55;;;;;;;12.60;11.30;;;;;;;;;;5014349;28;20033;-78
2023/09/17 12:47:24;;;;;;;12.43;10.32;;;;;;;;;;5013896;28;20036;-78
2023/09/17 12:49:53;;;;;;;12.43;10.55;;;;;;;;;;4996177;28;20058;-78
2023/09/17 12:52:19;;;;;;;13.55;11.15;;;;;;;;;;5014555;28;20030;-78
2023/09/17 12:54:45;;;;;;;13.60;12.20;;;;;;;;;;5014309;28;20026;-77
2023/09/17 12:57:11;;;;;;;14.13;11.68;;;;;;;;;;5015206;28;20022;-78
2023/09/17 12:59:41;;;;;;;13.38;10.88;;;;;;;;;;5014495;28;20413;-78
2023/09/17 13:02:08;;;;;;;18.63;12.77;;;;;;;;;;5014829;28;20072;-77
2023/09/17 13:04:35;;;;;;;15.35;13.60;;;;;;;;;;5014647;28;20480;-78
2023/09/17 13:07:03;;;;;;;15.93;12.98;;;;;;;;;;5014565;28;20044;-78
2023/09/17 13:09:31;;;;;;;14.70;13.13;;;;;;;;;;5014260;28;20030;-78
2023/09/17 13:11:59;;;;;;;15.32;11.90;;;;;;;;;;5014710;28;20467;-78
2023/09/17 13:14:25;;;;;;;15.90;13.07;;;;;;;;;;5015672;28;20018;-78
2023/09/17 13:16:52;;;;;;;15.45;13.45;;;;;;;;;;5014403;28;20076;-78
2023/09/17 13:19:18;;;;;;;15.63;13.45;;;;;;;;;;5017610;28;20445;-78
2023/09/17 13:21:45;;;;;;;17.13;14.70;;;;;;;;;;5018659;28;20057;-78
2023/09/17 13:24:11;;;;;;;16.77;14.57;;;;;;;;;;5018664;28;20034;-78
2023/09/17 13:26:37;;;;;;;17.33;15.52;;;;;;;;;;5018586;28;20026;-78
2023/09/17 13:29:04;;;;;;;18.27;16.38;;;;;;;;;;5018972;28;20021;-78
2023/09/17 13:31:32;;;;;;;18.02;15.30;;;;;;;;;;5018086;28;20026;-78
2023/09/17 13:33:58;;;;;;;17.38;13.82;;;;;;;;;;5018674;28;20457;-78
2023/09/17 13:36:24;;;;;;;18.45;15.35;;;;;;;;;;5018392;28;20041;-78
2023/09/17 13:38:50;;;;;;;19.40;16.73;;;;;;;;;;5010764;28;20026;-78
2023/09/17 13:41:19;;;;;;;22.80;20.20;;;;;;;;;;5000251;28;20026;-76
2023/09/17 13:43:45;;;;;;;20.75;17.27;;;;;;;;;;4996601;28;20524;-75
2023/09/17 13:46:17;;;;;;;21.02;18.30;;;;;;;;;;4996041;28;20157;-75
2023/09/17 13:48:44;;;;;;;20.88;18.40;;;;;;;;;;4995834;28;20030;-75
2023/09/17 13:51:12;;;;;;;21.90;19.52;;;;;;;;;;4998730;28;20030;-75
2023/09/17 13:53:38;;;;;;;21.15;18.70;;;;;;;;;;5015945;28;20026;-75
2023/09/17 13:56:04;;;;;;;23.23;19.30;;;;;;;;;;5015606;28;20100;-77
2023/09/17 13:58:30;;;;;;;22.17;19.25;;;;;;;;;;5016588;28;20034;-76
2023/09/17 14:00:58;;;;;;;25.45;20.05;;;;;;;;;;5015550;28;20100;-77
2023/09/17 14:03:24;;;;;;;23.05;19.95;;;;;;;;;;5017223;28;20547;-76
2023/09/17 14:05:50;;;;;;;22.40;20.00;;;;;;;;;;5018217;28;20026;-76
2023/09/17 14:08:18;;;;;;;24.08;20.80;;;;;;;;;;5015343;28;20022;-76
2023/09/17 14:10:44;;;;;;;24.55;21.35;;;;;;;;;;5015671;28;20022;-77
2023/09/17 14:13:10;;;;;;;27.23;22.27;;;;;;;;;;5015242;28;20376;-77
2023/09/17 14:15:39;;;;;;;27.05;22.10;;;;;;;;;;5015575;28;20057;-77
2023/09/17 14:18:05;;;;;;;26.23;21.58;;;;;;;;;;5015046;28;20053;-77
2023/09/17 14:20:31;;;;;;;27.17;21.70;;;;;;;;;;5015089;28;20029;-76